Glasgow, United Kingdom

10:26 PM BST on August 26, 2016 (GMT +0100)
Glasgow | | Change Station

Elev 26 ft 55.87 °N, 4.43 °W | Updated 6 minutes ago

Clear
Clear
52 °F
Feels Like 52 °F
N
6
Wind Variable Wind from SSW

Today
High -- | Low -- °F
--% Chance of Precip.
Yesterday
High -- | Low -- °F
Precip. -- in
Pressure 30.04 in
Visibility 6.2 miles
Clouds
Dew Point 50 °F
Humidity 94%
Rainfall 0.00 in
Snow Depth Not available.
6:11 AM 8:26 PM
Waning Crescent, 31% visible
METAR EGPF 262120Z AUTO 21005KT 180V290 9999 NCD 11/10 Q1017
Pressure 30.04 in
Visibility 6.2 miles
Clouds
Dew Point 50 °F
Humidity 94%
Rainfall 0.00 in
Snow Depth Not available.
6:11 AM 8:26 PM
Waning Crescent, 31% visible
METAR EGPF 262120Z AUTO 21005KT 180V290 9999 NCD 11/10 Q1017

10-Day Weather Forecast

×

Almanac

Astronomy

Aug. 26, 2016 Rise Set
Actual Time
Civil Twilight
Nautical Twilight
Astronomical Twilight
Moon
Length of Visible Light
Length of Day
Tomorrow will be .
, % of the Moon is Illuminated

Today's Extremes

Country Highs Country Lows

Community

WunderPhotos

Upload Photos

1,935,206 photos uploaded!

WunderBlog® & News

Nearby

Air Quality

  Air Quality AQ Index Pollutant
Not available.

Snow Depth

Station Depth Elevation

Earthquake Activity

City Distance Mag. Time & Date
Minimum magnitude displayed is 2.5.

Coastal Water Temperatures

Place Temperature

Stations

Nearby Weather Stations

Station Location Temp. Windchill Dew Point Humidity Wind Precip. Elev Updated Type